KMMI/MMI METAR and TAF weather

Enter ICAO airport designator
Station Type Date Time Source
KMMI METAR 2019/08/26 06:55 UTC NOAA

KMMI 260655Z AUTO VRB04G10KT 10SM OVC045 23/17 A3004 RMK A01


Station Type Date Time Source
KMMI Decoded METAR 2019/08/26 06:55 UTC NOAA

Station name not available
Aug 26, 2019 - 02:55 AM EDT / 2019.08.26 0655 UTC
Wind: Variable at 5 MPH (4 KT) gusting to 12 MPH (10 KT):0
Visibility: 10 mile(s):0
Sky conditions: overcast
Temperature: 73 F (23 C)
Dew Point: 62 F (17 C)
Relative Humidity: 68%
Pressure (altimeter): 30.04 in. Hg (1017 hPa)
ob: KMMI 260655Z AUTO VRB04G10KT 10SM OVC045 23/17 A3004 RMK A01
cycle: 7

Station Type Date Time Source
KMMI TAF UTC NOAA

Error!

Example: see airport list